Time;durP1;ratioP1;P1;durP2;ratioP2;P2;SDS_P1;SDS_P2;PMS_P1;PMS_P2;Temp;Humidity;BMP_temperature;BMP_pressure;BME280_temperature;BME280_humidity;BME280_pressure;Samples;Min_cycle;Max_cycle;Signal;HPM_P1;HPM_P2
2022/09/19 00:01:41;;;;;;;1.17;0.13;;;11.00;99.90;;;;;;5022711;28;20098;-74
2022/09/19 00:04:17;;;;;;;0.50;0.10;;;10.90;99.90;;;;;;5041201;28;20044;-73
2022/09/19 00:06:43;;;;;;;5.38;0.22;;;10.90;99.90;;;;;;5025800;28;20159;-74
2022/09/19 00:09:12;;;;;;;1.75;0.10;;;11.00;99.90;;;;;;5042757;28;23000;-74
2022/09/19 00:11:40;;;;;;;1.50;0.22;;;10.90;99.90;;;;;;5039339;28;20025;-74
2022/09/19 00:14:09;;;;;;;2.17;0.30;;;11.00;99.90;;;;;;5042266;28;20058;-74
2022/09/19 00:16:38;;;;;;;0.60;0.30;;;11.00;99.90;;;;;;5039105;28;20179;-74
2022/09/19 00:19:06;;;;;;;0.85;0.25;;;11.00;99.90;;;;;;5040858;28;20742;-74
2022/09/19 00:21:38;;;;;;;1.45;0.10;;;10.90;99.90;;;;;;5039084;28;20069;-74
2022/09/19 00:26:50;;;;;;;0.00;0.00;;;10.90;99.90;;;;;;5039880;28;20033;-74
2022/09/19 00:29:17;;;;;;;0.22;0.10;;;10.90;99.90;;;;;;5041668;28;20082;-74
2022/09/19 00:31:45;;;;;;;3.50;0.35;;;10.90;99.90;;;;;;5039430;28;20116;-74
2022/09/19 00:34:13;;;;;;;1.85;0.30;;;11.00;99.90;;;;;;5039837;28;20041;-74
2022/09/19 00:36:40;;;;;;;1.77;0.13;;;11.00;99.90;;;;;;5037304;28;20407;-74
2022/09/19 00:39:06;;;;;;;0.20;0.10;;;10.90;99.90;;;;;;5042022;28;20033;-74
2022/09/19 00:41:33;;;;;;;0.57;0.30;;;10.90;99.90;;;;;;5042599;28;20033;-74
2022/09/19 00:44:02;;;;;;;0.10;0.10;;;10.90;99.90;;;;;;5039014;28;20048;-74
2022/09/19 00:46:31;;;;;;;3.60;0.32;;;11.00;99.90;;;;;;5023280;28;20487;-74
2022/09/19 00:49:09;;;;;;;4.53;0.77;;;10.90;99.90;;;;;;5040063;28;20164;-73
2022/09/19 00:51:49;;;;;;;0.08;0.00;;;10.90;99.90;;;;;;5039231;28;20402;-74
2022/09/19 00:54:20;;;;;;;2.35;0.22;;;10.90;99.90;;;;;;5040503;28;20041;-74
2022/09/19 00:56:50;;;;;;;7.43;0.80;;;11.00;99.90;;;;;;5040319;28;20136;-74
2022/09/19 00:59:16;;;;;;;0.55;0.25;;;10.90;99.90;;;;;;5021822;28;20403;-74
2022/09/19 01:01:42;;;;;;;0.38;0.17;;;10.90;99.90;;;;;;5041707;28;20140;-74
2022/09/19 01:04:21;;;;;;;1.55;0.32;;;11.00;99.90;;;;;;5040069;28;20554;-74
2022/09/19 01:07:13;;;;;;;0.10;0.10;;;11.10;99.90;;;;;;5019197;28;20436;-74
2022/09/19 01:09:39;;;;;;;1.15;0.22;;;11.10;99.90;;;;;;5038149;28;20103;-74
2022/09/19 01:12:32;;;;;;;5.93;0.70;;;11.10;99.90;;;;;;5023848;28;20045;-74
2022/09/19 01:15:09;;;;;;;1.13;0.25;;;11.10;99.90;;;;;;5005846;28;20770;-74
2022/09/19 01:17:46;;;;;;;0.35;0.20;;;11.10;99.90;;;;;;5019233;28;20038;-74
2022/09/19 01:20:45;;;;;;;0.47;0.30;;;11.10;99.90;;;;;;5037813;28;20045;-74
2022/09/19 01:23:38;;;;;;;0.32;0.10;;;11.00;99.90;;;;;;5040885;28;20124;-74
2022/09/19 01:26:43;;;;;;;3.95;0.45;;;11.00;99.90;;;;;;5040291;28;20037;-74
2022/09/19 01:29:22;;;;;;;0.50;0.20;;;11.10;99.90;;;;;;5025121;28;20109;-74
2022/09/19 01:31:53;;;;;;;0.43;0.25;;;11.00;99.90;;;;;;5039078;28;20112;-74
2022/09/19 01:34:25;;;;;;;0.47;0.25;;;11.00;99.90;;;;;;5041080;28;20077;-74
2022/09/19 01:37:02;;;;;;;1.27;0.40;;;11.00;99.90;;;;;;5019928;28;20041;-74
2022/09/19 01:39:30;;;;;;;0.88;0.15;;;11.10;99.90;;;;;;5037667;28;20483;-74
2022/09/19 01:41:58;;;;;;;9.13;1.13;;;11.00;99.90;;;;;;5043232;28;20047;-74
2022/09/19 01:44:26;;;;;;;3.00;0.45;;;11.00;99.90;;;;;;5039812;28;20053;-74
2022/09/19 01:47:14;;;;;;;1.02;0.32;;;11.00;99.90;;;;;;5017739;28;20029;-74
2022/09/19 01:50:05;;;;;;;2.92;0.30;;;11.00;99.90;;;;;;5040526;28;20037;-74
2022/09/19 01:53:01;;;;;;;5.85;0.55;;;10.90;99.90;;;;;;5037864;28;20044;-73
2022/09/19 01:55:39;;;;;;;1.13;0.52;;;11.00;99.90;;;;;;5039149;28;20043;-74
2022/09/19 01:58:16;;;;;;;2.15;0.52;;;10.90;99.90;;;;;;5020215;28;20048;-74
2022/09/19 02:00:50;;;;;;;4.85;0.60;;;11.00;99.90;;;;;;5038225;28;20498;-74
2022/09/19 02:03:28;;;;;;;1.95;0.22;;;11.00;99.90;;;;;;5040916;28;20049;-74
2022/09/19 02:06:07;;;;;;;1.13;0.30;;;11.00;99.90;;;;;;5021278;28;20068;-74
2022/09/19 02:08:53;;;;;;;2.67;0.30;;;11.00;99.90;;;;;;5019887;28;20419;-74
2022/09/19 02:11:21;;;;;;;2.83;0.43;;;11.10;99.90;;;;;;5039236;28;20064;-74
2022/09/19 02:13:51;;;;;;;1.98;0.30;;;11.10;99.90;;;;;;5039833;28;20040;-73
2022/09/19 02:16:25;;;;;;;4.03;0.20;;;11.00;99.90;;;;;;5019878;28;20045;-73
2022/09/19 02:19:16;;;;;;;0.43;0.10;;;11.00;99.90;;;;;;5036510;28;20119;-74
2022/09/19 02:22:15;;;;;;;1.10;0.28;;;11.10;99.90;;;;;;5026457;28;20148;-74
2022/09/19 02:24:45;;;;;;;4.50;0.57;;;11.10;99.90;;;;;;5039161;28;20037;-74
2022/09/19 02:27:20;;;;;;;2.38;0.20;;;11.10;99.90;;;;;;5040428;28;20045;-74
2022/09/19 02:29:52;;;;;;;2.92;0.20;;;11.00;99.90;;;;;;5037891;28;20028;-74
2022/09/19 02:32:19;;;;;;;1.80;0.30;;;11.00;99.90;;;;;;5040555;28;20112;-73
2022/09/19 02:34:49;;;;;;;1.88;0.30;;;11.10;99.90;;;;;;5021831;28;20053;-74
2022/09/19 02:37:41;;;;;;;1.45;0.80;;;11.00;99.90;;;;;;5038663;28;20037;-74
2022/09/19 02:40:23;;;;;;;2.03;0.40;;;11.00;99.90;;;;;;5039447;28;20041;-74
2022/09/19 02:43:06;;;;;;;3.90;0.43;;;11.10;99.90;;;;;;5038896;28;20437;-74
2022/09/19 02:45:43;;;;;;;2.53;0.10;;;11.10;99.90;;;;;;5038134;28;20067;-74
2022/09/19 02:48:49;;;;;;;2.83;0.30;;;11.00;99.90;;;;;;5039402;28;20052;-74
2022/09/19 02:51:45;;;;;;;2.30;0.30;;;11.10;99.90;;;;;;5041917;28;20044;-73
2022/09/19 02:54:19;;;;;;;0.98;0.30;;;11.10;99.90;;;;;;5042206;28;20660;-73
2022/09/19 02:56:47;;;;;;;2.55;0.30;;;11.10;99.90;;;;;;5023785;28;20049;-73
2022/09/19 02:59:23;;;;;;;1.90;0.35;;;11.10;99.90;;;;;;5023688;28;20063;-73
2022/09/19 03:01:54;;;;;;;0.30;0.10;;;11.10;99.90;;;;;;5024483;28;20386;-74
2022/09/19 03:04:29;;;;;;;0.60;0.30;;;11.10;99.90;;;;;;5032175;28;20044;-73
2022/09/19 03:07:05;;;;;;;3.63;0.85;;;11.10;99.90;;;;;;5042570;28;20094;-73
2022/09/19 03:09:31;;;;;;;3.95;0.30;;;11.20;99.90;;;;;;5042455;28;20127;-73
2022/09/19 03:12:08;;;;;;;1.08;0.45;;;11.20;99.90;;;;;;5044038;28;20025;-73
2022/09/19 03:14:35;;;;;;;1.77;0.13;;;11.20;99.90;;;;;;5042447;28;20559;-73
2022/09/19 03:17:01;;;;;;;3.10;0.38;;;11.10;99.90;;;;;;5010630;28;20040;-74
2022/09/19 03:19:30;;;;;;;0.52;0.20;;;11.10;99.90;;;;;;5042418;28;20029;-73
2022/09/19 03:21:56;;;;;;;0.52;0.30;;;11.20;99.90;;;;;;5024983;28;20840;-73
2022/09/19 03:24:22;;;;;;;2.33;0.20;;;11.20;99.90;;;;;;5023979;28;20594;-73
2022/09/19 03:26:48;;;;;;;0.20;0.10;;;11.30;99.90;;;;;;5043036;28;20033;-73
2022/09/19 03:29:15;;;;;;;2.40;0.45;;;11.20;99.90;;;;;;5041354;28;20037;-74
2022/09/19 03:31:43;;;;;;;2.25;0.30;;;11.20;99.90;;;;;;5041160;28;20044;-74
2022/09/19 03:34:11;;;;;;;2.08;0.20;;;11.20;99.90;;;;;;5042199;28;20041;-73
2022/09/19 03:36:37;;;;;;;4.28;0.20;;;11.20;99.90;;;;;;5043176;28;20041;-74
2022/09/19 03:39:03;;;;;;;1.90;0.35;;;11.20;99.90;;;;;;5043760;28;20067;-73
2022/09/19 03:41:30;;;;;;;3.03;0.35;;;11.20;99.90;;;;;;5040031;28;20033;-74
2022/09/19 03:44:01;;;;;;;6.97;0.50;;;11.20;99.90;;;;;;5006728;28;20041;-74
2022/09/19 03:46:30;;;;;;;2.72;0.32;;;11.20;99.90;;;;;;5023085;28;20037;-74
2022/09/19 03:48:56;;;;;;;2.97;0.35;;;11.20;99.90;;;;;;5023146;28;20094;-74
2022/09/19 03:51:22;;;;;;;7.85;0.60;;;11.10;99.90;;;;;;5040182;28;20620;-74
2022/09/19 03:53:47;;;;;;;2.03;0.40;;;11.20;99.90;;;;;;5042610;28;20234;-74
2022/09/19 03:56:14;;;;;;;7.10;0.50;;;11.20;99.90;;;;;;5042217;28;20033;-74
2022/09/19 03:58:41;;;;;;;0.55;0.30;;;11.10;99.90;;;;;;5042648;28;20124;-74
2022/09/19 04:01:07;;;;;;;1.50;0.20;;;11.10;99.90;;;;;;5038742;28;20029;-74
2022/09/19 04:03:34;;;;;;;0.43;0.10;;;11.10;99.90;;;;;;5042864;28;20033;-74
2022/09/19 04:06:00;;;;;;;0.50;0.08;;;11.10;99.90;;;;;;5023057;28;20036;-74
2022/09/19 04:08:27;;;;;;;0.28;0.17;;;11.20;99.90;;;;;;5024400;28;20049;-73
2022/09/19 04:10:53;;;;;;;1.65;0.20;;;11.10;99.90;;;;;;5020480;28;20049;-73
2022/09/19 04:13:21;;;;;;;1.50;0.50;;;11.20;99.90;;;;;;5041524;28;20128;-73
2022/09/19 04:15:51;;;;;;;1.90;0.13;;;11.10;99.90;;;;;;5042204;28;20171;-74
2022/09/19 04:18:17;;;;;;;0.85;0.28;;;11.10;99.90;;;;;;5042710;28;20273;-74
2022/09/19 04:20:45;;;;;;;0.75;0.10;;;11.10;99.90;;;;;;5039685;28;21897;-74
2022/09/19 04:23:13;;;;;;;0.38;0.00;;;11.20;99.90;;;;;;5022518;28;20499;-74
2022/09/19 04:25:39;;;;;;;1.02;0.20;;;11.10;99.90;;;;;;5023709;28;20033;-74
2022/09/19 04:28:08;;;;;;;0.00;0.00;;;11.10;99.90;;;;;;5039397;28;20044;-74
2022/09/19 04:30:35;;;;;;;0.35;0.20;;;11.20;99.90;;;;;;5041939;28;20128;-74
2022/09/19 04:33:02;;;;;;;0.22;0.13;;;11.20;99.90;;;;;;5023945;28;20052;-74
2022/09/19 04:35:34;;;;;;;0.10;0.10;;;11.20;99.90;;;;;;5039583;28;20076;-75
2022/09/19 04:38:01;;;;;;;1.27;0.40;;;11.20;99.90;;;;;;5039428;28;20044;-74
2022/09/19 04:40:28;;;;;;;0.85;0.20;;;11.10;99.90;;;;;;5022450;28;20487;-74
2022/09/19 04:42:53;;;;;;;0.75;0.22;;;11.20;99.90;;;;;;5042672;28;20041;-74
2022/09/19 04:45:20;;;;;;;0.88;0.30;;;11.20;99.90;;;;;;5041459;28;20087;-74
2022/09/19 04:47:47;;;;;;;1.45;0.32;;;11.20;99.90;;;;;;5022394;28;20029;-74
2022/09/19 04:50:14;;;;;;;2.67;0.20;;;11.20;99.90;;;;;;5041367;28;20573;-73
2022/09/19 04:52:39;;;;;;;0.65;0.28;;;11.30;99.90;;;;;;5040293;28;20044;-73
2022/09/19 04:55:06;;;;;;;2.92;0.70;;;11.20;99.90;;;;;;5041323;28;20390;-73
2022/09/19 04:57:31;;;;;;;7.18;0.50;;;11.30;99.90;;;;;;5040283;28;20043;-74
2022/09/19 04:59:57;;;;;;;1.00;0.22;;;11.30;99.90;;;;;;5041694;28;20044;-73
2022/09/19 05:02:23;;;;;;;0.10;0.10;;;11.30;99.90;;;;;;5041242;28;20032;-73
2022/09/19 05:04:48;;;;;;;2.40;0.20;;;11.20;99.90;;;;;;5041377;28;22229;-73
2022/09/19 05:07:14;;;;;;;1.38;0.32;;;11.30;99.90;;;;;;5039628;28;20056;-73
2022/09/19 05:09:42;;;;;;;0.50;0.13;;;11.20;99.90;;;;;;5040642;28;20052;-73
2022/09/19 05:12:08;;;;;;;0.55;0.25;;;11.20;99.90;;;;;;5040670;28;20083;-73
2022/09/19 05:14:34;;;;;;;1.40;0.25;;;11.20;99.90;;;;;;5041933;28;20064;-73
2022/09/19 05:17:00;;;;;;;4.53;0.28;;;11.30;99.90;;;;;;5040100;28;20056;-73
2022/09/19 05:19:26;;;;;;;1.42;0.25;;;11.30;99.90;;;;;;5038693;28;20041;-73
2022/09/19 05:21:52;;;;;;;0.80;0.20;;;11.30;99.90;;;;;;5005466;28;20056;-73
2022/09/19 05:24:18;;;;;;;0.05;0.03;;;11.30;99.90;;;;;;5040278;28;20060;-73
2022/09/19 05:26:44;;;;;;;0.00;0.00;;;11.30;99.90;;;;;;5039763;28;20149;-73
2022/09/19 05:29:13;;;;;;;1.75;0.40;;;11.30;99.90;;;;;;5041407;28;20037;-74
2022/09/19 05:31:40;;;;;;;2.97;0.10;;;11.20;99.90;;;;;;5040180;28;20142;-73
2022/09/19 05:34:05;;;;;;;0.38;0.10;;;11.30;99.90;;;;;;5041100;28;20052;-73
2022/09/19 05:36:31;;;;;;;2.05;0.20;;;11.30;99.90;;;;;;5020757;28;20640;-73
2022/09/19 05:38:57;;;;;;;0.95;0.25;;;11.20;99.90;;;;;;5039295;28;20114;-74
2022/09/19 05:41:23;;;;;;;2.13;0.13;;;11.20;99.90;;;;;;5040588;28;20045;-73
2022/09/19 05:43:50;;;;;;;1.08;0.20;;;11.30;99.90;;;;;;5040116;28;20082;-73
2022/09/19 05:46:16;;;;;;;1.70;0.60;;;11.30;99.90;;;;;;5038957;28;20029;-73
2022/09/19 05:48:41;;;;;;;0.15;0.15;;;11.20;99.90;;;;;;5040887;28;20086;-73
2022/09/19 05:51:07;;;;;;;6.82;0.45;;;11.30;99.90;;;;;;5039144;28;20431;-74
2022/09/19 05:56:16;;;;;;;5.18;0.55;;;11.20;99.90;;;;;;5040762;28;20399;-73
2022/09/19 05:58:42;;;;;;;2.00;0.30;;;11.20;99.90;;;;;;5039409;28;20044;-73
2022/09/19 06:01:10;;;;;;;0.45;0.20;;;11.20;99.90;;;;;;5040227;28;20033;-73
2022/09/19 06:03:38;;;;;;;1.00;0.45;;;11.20;99.90;;;;;;5039065;28;20415;-73
2022/09/19 06:06:18;;;;;;;0.77;0.30;;;11.20;99.90;;;;;;5023775;28;20029;-73
2022/09/19 06:08:44;;;;;;;5.88;0.40;;;11.10;99.90;;;;;;5022687;28;20064;-73
2022/09/19 06:11:10;;;;;;;1.20;0.25;;;11.10;99.90;;;;;;5024527;28;20055;-73
2022/09/19 06:16:20;;;;;;;4.63;0.30;;;11.10;99.90;;;;;;5039521;28;20052;-73
2022/09/19 06:18:46;;;;;;;5.47;0.88;;;11.10;99.90;;;;;;5038787;28;20041;-73
2022/09/19 06:21:12;;;;;;;0.25;0.13;;;11.10;99.90;;;;;;5040962;28;20466;-73
2022/09/19 06:23:39;;;;;;;1.35;0.40;;;11.10;99.90;;;;;;5038934;28;20410;-73
2022/09/19 06:26:05;;;;;;;2.88;0.25;;;11.10;99.90;;;;;;5041774;28;21992;-70
2022/09/19 06:28:30;;;;;;;1.08;0.32;;;11.10;99.90;;;;;;5044125;28;20071;-76
2022/09/19 06:31:02;;;;;;;2.55;0.35;;;11.10;99.90;;;;;;5041859;28;20749;-75
2022/09/19 06:33:28;;;;;;;0.82;0.30;;;11.20;99.90;;;;;;5042573;28;20045;-74
2022/09/19 06:35:59;;;;;;;1.67;0.20;;;11.20;99.90;;;;;;5024773;28;20043;-74
2022/09/19 06:38:25;;;;;;;2.17;0.45;;;11.20;99.90;;;;;;5044434;28;20041;-73
2022/09/19 06:40:51;;;;;;;0.45;0.30;;;11.20;99.90;;;;;;5041476;28;20072;-74
2022/09/19 06:43:17;;;;;;;5.78;0.88;;;11.20;99.90;;;;;;5041692;28;20080;-74
2022/09/19 06:45:42;;;;;;;2.22;0.35;;;11.30;99.90;;;;;;5043546;28;20072;-74
2022/09/19 06:48:09;;;;;;;2.78;0.95;;;11.20;99.90;;;;;;5038514;28;20132;-74
2022/09/19 06:50:35;;;;;;;0.10;0.10;;;11.20;99.90;;;;;;5021752;28;20517;-74
2022/09/19 06:53:01;;;;;;;2.42;0.57;;;11.30;99.90;;;;;;5043714;28;20052;-74
2022/09/19 06:55:28;;;;;;;4.70;0.70;;;11.30;99.90;;;;;;5040846;28;20041;-74
2022/09/19 06:57:59;;;;;;;1.45;0.20;;;11.40;99.90;;;;;;5025692;28;20041;-73
2022/09/19 07:00:27;;;;;;;0.32;0.20;;;11.40;99.90;;;;;;5042214;28;20424;-73
2022/09/19 07:02:59;;;;;;;0.63;0.30;;;11.50;99.90;;;;;;5042261;28;20052;-74
2022/09/19 07:05:26;;;;;;;1.48;0.40;;;11.60;99.90;;;;;;5043435;28;20505;-73
2022/09/19 07:07:52;;;;;;;1.55;0.38;;;11.60;99.90;;;;;;5025339;28;20179;-73
2022/09/19 07:10:22;;;;;;;2.30;0.35;;;11.50;99.90;;;;;;5042397;28;20120;-73
2022/09/19 07:12:56;;;;;;;2.08;0.35;;;11.60;99.90;;;;;;5022818;28;20064;-73
2022/09/19 07:15:23;;;;;;;4.97;0.68;;;11.60;99.90;;;;;;5040324;28;20445;-73
2022/09/19 07:17:48;;;;;;;0.65;0.30;;;11.60;99.90;;;;;;5042721;28;20025;-73
2022/09/19 07:20:14;;;;;;;0.88;0.40;;;11.70;99.90;;;;;;5043444;28;20075;-73
2022/09/19 07:22:40;;;;;;;0.95;0.30;;;11.60;99.90;;;;;;5044800;28;20033;-73
2022/09/19 07:25:07;;;;;;;2.55;0.30;;;11.60;99.90;;;;;;5043180;28;20075;-73
2022/09/19 07:27:36;;;;;;;0.35;0.15;;;11.70;99.90;;;;;;5043341;28;20079;-73
2022/09/19 07:30:04;;;;;;;4.38;0.60;;;11.70;99.90;;;;;;5043037;28;20076;-74
2022/09/19 07:32:30;;;;;;;5.93;0.60;;;11.70;99.90;;;;;;5039792;28;20575;-73
2022/09/19 07:34:56;;;;;;;4.68;0.47;;;11.70;99.90;;;;;;5043344;28;20041;-73
2022/09/19 07:37:22;;;;;;;8.65;1.02;;;11.80;99.90;;;;;;5042586;28;20041;-74
2022/09/19 07:39:47;;;;;;;3.28;0.65;;;11.90;99.90;;;;;;5041420;28;20437;-73
2022/09/19 07:42:13;;;;;;;6.20;0.40;;;11.90;99.90;;;;;;5023293;28;20045;-73
2022/09/19 07:44:39;;;;;;;1.35;0.50;;;12.00;99.90;;;;;;5036347;28;20045;-73
2022/09/19 07:49:49;;;;;;;2.35;0.30;;;12.10;99.90;;;;;;5038271;28;20049;-74
2022/09/19 07:52:15;;;;;;;0.75;0.38;;;12.10;99.90;;;;;;5043077;28;20041;-73
2022/09/19 07:54:41;;;;;;;0.80;0.10;;;12.00;99.90;;;;;;5045180;28;20076;-73
2022/09/19 07:57:06;;;;;;;0.22;0.10;;;12.00;99.90;;;;;;5026251;28;20065;-73
2022/09/19 07:59:32;;;;;;;1.10;0.13;;;12.00;99.90;;;;;;5043669;28;20081;-74
2022/09/19 08:01:58;;;;;;;2.35;0.47;;;12.00;99.90;;;;;;5023113;28;20300;-73
2022/09/19 08:04:24;;;;;;;2.45;0.32;;;12.10;99.90;;;;;;5045508;28;20346;-73
2022/09/19 08:06:49;;;;;;;7.68;0.45;;;12.10;99.90;;;;;;5043672;28;20086;-78
2022/09/19 08:09:15;;;;;;;1.88;0.20;;;12.00;99.90;;;;;;5045873;28;20064;-78
2022/09/19 08:11:40;;;;;;;4.43;0.77;;;12.00;99.90;;;;;;5007663;28;20064;-73
2022/09/19 08:14:06;;;;;;;3.20;0.43;;;12.10;99.90;;;;;;5027056;28;20063;-73
2022/09/19 08:16:32;;;;;;;2.55;0.10;;;12.10;99.90;;;;;;5024666;28;20083;-73
2022/09/19 08:18:58;;;;;;;0.45;0.15;;;12.10;99.90;;;;;;5044096;28;20052;-74
2022/09/19 08:21:25;;;;;;;1.75;0.60;;;12.10;99.90;;;;;;5005656;28;20045;-73
2022/09/19 08:23:51;;;;;;;0.70;0.13;;;12.30;99.90;;;;;;5041665;28;20084;-73
2022/09/19 08:26:16;;;;;;;0.75;0.30;;;12.30;99.90;;;;;;5042447;28;20128;-73
2022/09/19 08:28:42;;;;;;;4.35;0.88;;;12.40;99.90;;;;;;5022186;28;20037;-73
2022/09/19 08:31:09;;;;;;;0.57;0.30;;;12.50;99.90;;;;;;5019077;28;20478;-74
2022/09/19 08:33:35;;;;;;;1.85;0.52;;;12.50;99.90;;;;;;5021400;28;20091;-74
2022/09/19 08:36:01;;;;;;;0.55;0.10;;;12.50;99.90;;;;;;5022143;28;20041;-74
2022/09/19 08:38:27;;;;;;;2.28;0.57;;;12.50;99.90;;;;;;5006118;28;20086;-75
2022/09/19 08:41:14;;;;;;;2.30;0.30;;;12.50;99.90;;;;;;5018821;28;20060;-74
2022/09/19 08:43:54;;;;;;;3.00;0.80;;;12.60;99.90;;;;;;5041675;28;20094;-74
2022/09/19 08:46:36;;;;;;;0.57;0.25;;;12.70;99.90;;;;;;5025471;28;20128;-74
2022/09/19 08:49:16;;;;;;;1.85;0.50;;;12.70;99.90;;;;;;5039863;28;20514;-74
2022/09/19 08:51:53;;;;;;;0.98;0.20;;;12.80;99.90;;;;;;5039243;28;20033;-74
2022/09/19 08:54:30;;;;;;;11.30;0.63;;;12.80;99.90;;;;;;5043243;28;20523;-74
2022/09/19 08:56:57;;;;;;;1.15;0.25;;;12.90;99.90;;;;;;5041320;28;21030;-74
2022/09/19 08:59:27;;;;;;;2.63;0.40;;;13.00;99.90;;;;;;5022154;28;20045;-74
2022/09/19 09:01:59;;;;;;;4.78;0.22;;;13.00;99.90;;;;;;5043263;28;20347;-74
2022/09/19 09:04:31;;;;;;;3.67;0.32;;;13.10;99.90;;;;;;5045758;28;20041;-74
2022/09/19 09:07:36;;;;;;;2.53;0.47;;;13.10;99.90;;;;;;5018313;28;20413;-74
2022/09/19 09:10:13;;;;;;;3.53;0.40;;;13.10;99.90;;;;;;5036902;28;20049;-74
2022/09/19 09:12:59;;;;;;;0.68;0.20;;;13.20;99.90;;;;;;5041116;28;20499;-74
2022/09/19 09:16:07;;;;;;;0.57;0.10;;;13.30;99.90;;;;;;5018306;28;20063;-74
2022/09/19 09:19:02;;;;;;;7.50;0.77;;;13.30;99.90;;;;;;5036520;28;20100;-74
2022/09/19 09:22:00;;;;;;;3.95;0.30;;;13.30;99.90;;;;;;5038814;28;20445;-74
2022/09/19 09:24:36;;;;;;;0.63;0.25;;;13.40;99.90;;;;;;5041114;28;20033;-74
2022/09/19 09:27:09;;;;;;;2.28;0.50;;;13.50;99.90;;;;;;5020532;28;20040;-74
2022/09/19 09:29:43;;;;;;;1.30;0.35;;;13.50;99.90;;;;;;5037186;28;20033;-74
2022/09/19 09:32:30;;;;;;;2.10;0.20;;;13.60;99.90;;;;;;5016711;28;20064;-74
2022/09/19 09:35:29;;;;;;;5.53;0.50;;;13.70;99.90;;;;;;5021303;28;20044;-74
2022/09/19 09:38:11;;;;;;;4.88;0.63;;;13.70;99.90;;;;;;5023462;28;20040;-74
2022/09/19 09:44:15;;;;;;;3.38;0.55;;;13.80;99.90;;;;;;5040975;28;20520;-74
2022/09/19 09:46:53;;;;;;;2.05;0.38;;;13.80;99.90;;;;;;5041273;28;20040;-74
2022/09/19 09:49:21;;;;;;;0.73;0.25;;;13.80;99.90;;;;;;5037575;28;20047;-73
2022/09/19 09:51:53;;;;;;;1.35;0.30;;;13.70;99.90;;;;;;5038994;28;20195;-74
2022/09/19 09:57:38;;;;;;;0.60;0.28;;;13.60;99.90;;;;;;5041937;28;20040;-74
2022/09/19 10:05:55;;;;;;;4.78;0.73;;;13.30;99.90;;;;;;5019098;28;20041;-74
2022/09/19 10:08:38;;;;;;;2.63;0.40;;;13.40;99.90;;;;;;5039790;28;20045;-73
2022/09/19 10:11:11;;;;;;;12.98;0.90;;;13.40;99.90;;;;;;5036255;28;20491;-74
2022/09/19 10:13:46;;;;;;;3.42;0.45;;;13.60;99.90;;;;;;5040479;28;20049;-74
2022/09/19 10:16:14;;;;;;;4.97;0.40;;;13.70;99.90;;;;;;5018271;28;20045;-73
2022/09/19 10:18:59;;;;;;;0.40;0.20;;;13.80;99.90;;;;;;5040794;28;20041;-74
2022/09/19 10:21:25;;;;;;;2.95;0.45;;;13.90;99.90;;;;;;5032486;28;20048;-74
2022/09/19 10:23:50;;;;;;;3.55;0.38;;;13.90;99.90;;;;;;5038799;28;20045;-75
2022/09/19 10:26:25;;;;;;;0.15;0.13;;;13.80;99.90;;;;;;5038032;28;20123;-74
2022/09/19 10:28:53;;;;;;;5.38;0.20;;;13.80;99.90;;;;;;5021374;28;20029;-73
2022/09/19 10:31:34;;;;;;;1.15;0.65;;;13.80;99.90;;;;;;5022005;28;20048;-73
2022/09/19 10:34:05;;;;;;;0.40;0.20;;;13.70;99.90;;;;;;5041788;28;20388;-73
2022/09/19 10:36:33;;;;;;;2.70;0.40;;;13.50;99.90;;;;;;5038871;28;20472;-73
2022/09/19 10:39:07;;;;;;;1.63;0.30;;;13.40;99.90;;;;;;5039401;28;20119;-73
2022/09/19 10:41:37;;;;;;;1.95;0.25;;;13.30;99.90;;;;;;5019763;28;20059;-73
2022/09/19 10:44:22;;;;;;;1.10;0.30;;;13.10;99.90;;;;;;5041070;28;20083;-73
2022/09/19 10:47:04;;;;;;;0.05;0.05;;;13.00;99.90;;;;;;5038203;28;20486;-73
2022/09/19 10:49:45;;;;;;;2.40;0.35;;;12.90;99.90;;;;;;5041252;28;20043;-73
2022/09/19 10:52:13;;;;;;;0.45;0.08;;;12.90;99.90;;;;;;5039453;28;20041;-73
2022/09/19 10:54:42;;;;;;;0.10;0.10;;;12.90;99.90;;;;;;5036156;28;20044;-73
2022/09/19 10:57:37;;;;;;;0.47;0.10;;;12.90;99.90;;;;;;5036559;28;20041;-74
2022/09/19 11:00:04;;;;;;;0.73;0.32;;;13.00;99.90;;;;;;5018364;28;20049;-74
2022/09/19 11:02:30;;;;;;;0.65;0.13;;;13.10;99.90;;;;;;5018463;28;20282;-73
2022/09/19 11:05:09;;;;;;;0.13;0.03;;;13.20;99.90;;;;;;5017330;28;20303;-74
2022/09/19 11:07:48;;;;;;;0.30;0.13;;;13.30;99.90;;;;;;5023152;28;20041;-73
2022/09/19 11:10:40;;;;;;;1.80;0.30;;;13.40;99.90;;;;;;5041664;28;20053;-74
2022/09/19 11:13:12;;;;;;;5.93;0.30;;;13.50;99.90;;;;;;5042930;28;20273;-73
2022/09/19 11:15:57;;;;;;;3.38;0.50;;;13.60;99.90;;;;;;5043758;28;20071;-73
2022/09/19 11:18:42;;;;;;;3.22;0.30;;;13.70;99.90;;;;;;5046960;28;20050;-73
2022/09/19 11:21:30;;;;;;;2.88;0.57;;;13.80;99.90;;;;;;5026276;28;20063;-73
2022/09/19 11:24:11;;;;;;;1.65;0.30;;;13.90;99.90;;;;;;5045928;28;20028;-73
2022/09/19 11:26:57;;;;;;;4.75;0.43;;;13.90;99.90;;;;;;5028155;28;20086;-74
2022/09/19 11:29:51;;;;;;;4.15;0.40;;;13.90;99.90;;;;;;5046275;28;20070;-74
2022/09/19 11:33:00;;;;;;;3.72;0.40;;;14.00;99.90;;;;;;5028564;28;20114;-74
2022/09/19 11:35:53;;;;;;;7.25;0.75;;;14.00;99.90;;;;;;5043204;28;20112;-74
2022/09/19 11:38:36;;;;;;;1.83;0.22;;;14.10;99.90;;;;;;5042747;28;20079;-74
2022/09/19 11:41:23;;;;;;;3.40;0.40;;;14.20;99.90;;;;;;5047853;28;20037;-74
2022/09/19 11:43:59;;;;;;;1.45;0.38;;;14.20;99.90;;;;;;5046202;28;20037;-73
2022/09/19 11:46:49;;;;;;;5.07;0.68;;;14.20;99.90;;;;;;5044663;28;20037;-74
2022/09/19 11:49:49;;;;;;;5.47;0.40;;;14.30;99.90;;;;;;5030794;28;20052;-74
2022/09/19 11:52:26;;;;;;;3.65;0.60;;;14.30;99.90;;;;;;5048857;28;20037;-74
2022/09/19 11:55:33;;;;;;;3.17;0.73;;;14.30;99.90;;;;;;5003101;28;20064;-74
2022/09/19 11:58:29;;;;;;;1.98;0.28;;;14.20;99.90;;;;;;5043689;28;20052;-74
2022/09/19 12:01:29;;;;;;;1.52;0.35;;;14.10;99.90;;;;;;5046564;28;20060;-74
2022/09/19 12:04:13;;;;;;;6.07;0.60;;;14.10;99.90;;;;;;5023468;28;20561;-73
2022/09/19 12:06:54;;;;;;;0.65;0.30;;;14.00;99.90;;;;;;5040744;28;20045;-73
2022/09/19 12:09:35;;;;;;;1.83;0.38;;;14.00;99.90;;;;;;5042814;28;20049;-73
2022/09/19 12:12:11;;;;;;;3.10;0.40;;;14.10;99.90;;;;;;5043697;28;20072;-72
2022/09/19 12:14:46;;;;;;;;;;;14.20;99.90;;;;;;5049426;28;20044;-72
2022/09/19 12:17:25;;;;;;;1.77;0.60;;;14.20;99.90;;;;;;5043052;28;19916;-73
2022/09/19 12:20:13;;;;;;;2.30;0.30;;;14.20;99.90;;;;;;5042068;28;20037;-72
2022/09/19 12:22:50;;;;;;;3.60;0.73;;;14.20;99.90;;;;;;5038623;28;20095;-73
2022/09/19 12:25:31;;;;;;;1.65;0.52;;;14.20;99.90;;;;;;5043124;28;20537;-73
2022/09/19 12:28:06;;;;;;;0.77;0.28;;;14.10;99.90;;;;;;5040969;28;20029;-73
2022/09/19 12:30:41;;;;;;;2.30;0.00;;;14.10;99.90;;;;;;5019427;28;20076;-73
2022/09/19 12:33:06;;;;;;;0.20;0.10;;;14.00;99.90;;;;;;5003676;28;20094;-73
2022/09/19 12:35:44;;;;;;;2.92;0.50;;;13.90;99.90;;;;;;5039340;28;20059;-73
2022/09/19 12:38:27;;;;;;;1.55;0.20;;;13.80;99.90;;;;;;5041508;28;20033;-73
2022/09/19 12:41:11;;;;;;;2.65;0.28;;;13.80;99.90;;;;;;5039312;28;20037;-73
2022/09/19 12:44:00;;;;;;;4.75;0.60;;;13.70;99.90;;;;;;5023466;28;20041;-73
2022/09/19 12:46:55;;;;;;;2.00;0.40;;;13.70;99.90;;;;;;5008760;28;20037;-74
2022/09/19 12:49:54;;;;;;;0.82;0.30;;;13.80;99.90;;;;;;5024422;28;20414;-74
2022/09/19 12:52:34;;;;;;;1.67;0.20;;;13.90;99.90;;;;;;5020600;28;20090;-74
2022/09/19 12:55:26;;;;;;;1.00;0.47;;;14.00;99.90;;;;;;5021734;28;20079;-73
2022/09/19 12:58:03;;;;;;;5.03;0.55;;;14.00;99.90;;;;;;5014525;28;20882;-74
2022/09/19 13:00:31;;;;;;;3.38;0.28;;;14.10;99.90;;;;;;5018654;28;20045;-73
2022/09/19 13:03:08;;;;;;;4.70;0.68;;;14.10;99.90;;;;;;5035933;28;20124;-73
2022/09/19 13:05:42;;;;;;;3.60;0.60;;;14.20;99.90;;;;;;5039491;28;20120;-73
2022/09/19 13:08:35;;;;;;;4.10;0.40;;;14.30;99.90;;;;;;5022540;28;20386;-73
2022/09/19 13:11:13;;;;;;;0.85;0.22;;;14.40;99.90;;;;;;5022947;28;20128;-73
2022/09/19 13:13:56;;;;;;;1.17;0.43;;;14.40;99.90;;;;;;5018599;28;20491;-73
2022/09/19 13:16:31;;;;;;;1.25;0.63;;;14.40;99.90;;;;;;5018023;28;20040;-73
2022/09/19 13:24:41;;;;;;;1.98;0.25;;;14.40;99.90;;;;;;5038621;28;20143;-74
2022/09/19 13:27:09;;;;;;;3.22;0.30;;;14.40;99.90;;;;;;5020078;28;20512;-73
2022/09/19 13:29:35;;;;;;;2.25;0.60;;;14.30;99.90;;;;;;5015824;28;20545;-73
2022/09/19 13:32:26;;;;;;;1.63;0.30;;;14.30;99.90;;;;;;5004138;28;20053;-70
2022/09/19 13:35:14;;;;;;;6.18;1.17;;;14.30;99.90;;;;;;5020618;28;20121;-74
2022/09/19 13:37:43;;;;;;;0.52;0.20;;;14.20;99.90;;;;;;5019587;28;20072;-74
2022/09/19 13:40:14;;;;;;;5.47;0.63;;;14.10;99.90;;;;;;5004751;28;20064;-74
2022/09/19 13:42:49;;;;;;;1.73;0.28;;;14.00;99.90;;;;;;5004538;28;20144;-73
2022/09/19 13:45:49;;;;;;;0.82;0.15;;;13.70;99.90;;;;;;5021432;28;20041;-73
2022/09/19 13:48:53;;;;;;;3.80;0.60;;;13.50;99.90;;;;;;5002627;28;20037;-77
2022/09/19 13:51:30;;;;;;;0.68;0.43;;;13.40;99.90;;;;;;5035916;28;20029;-73